createdAt,value
2017-12-02T00:02:17.920Z,2.50
2017-12-02T00:05:19.228Z,2.70
2017-12-02T00:08:20.604Z,2.80
2017-12-02T00:11:22.168Z,2.70
2017-12-02T00:14:23.520Z,2.70
2017-12-02T00:17:24.914Z,2.70
2017-12-02T00:20:26.269Z,2.70
2017-12-02T00:23:27.680Z,2.80
2017-12-02T00:26:29.820Z,2.80
2017-12-02T00:29:31.235Z,2.50
2017-12-02T00:32:32.616Z,2.80
2017-12-02T00:35:34.016Z,2.80
2017-12-02T00:38:36.321Z,2.80
2017-12-02T00:41:37.728Z,2.70
2017-12-02T00:44:39.158Z,2.80
2017-12-02T00:47:41.328Z,2.80
2017-12-02T00:50:42.883Z,2.80
2017-12-02T00:53:44.221Z,2.70
2017-12-02T00:56:45.586Z,2.90
2017-12-02T00:59:47.676Z,2.90
2017-12-02T01:02:49.799Z,2.90
2017-12-02T01:05:51.184Z,2.80
2017-12-02T01:08:52.590Z,2.90
2017-12-02T01:11:55.358Z,3.00
2017-12-02T01:14:56.823Z,2.90
2017-12-02T01:17:58.220Z,2.90
2017-12-02T01:20:59.619Z,2.80
2017-12-02T01:24:01.084Z,3.00
2017-12-02T01:27:02.506Z,3.00
2017-12-02T01:30:04.701Z,3.00
2017-12-02T01:33:06.140Z,2.90
2017-12-02T01:36:07.498Z,3.00
2017-12-02T01:39:08.872Z,3.00
2017-12-02T01:42:10.251Z,2.60
2017-12-02T01:45:11.659Z,3.00
2017-12-02T01:48:13.092Z,2.80
2017-12-02T01:51:14.428Z,2.90
2017-12-02T01:54:16.556Z,2.90
2017-12-02T01:57:17.900Z,2.70
2017-12-02T02:00:19.303Z,2.70
2017-12-02T02:03:21.361Z,2.90
2017-12-02T02:06:26.605Z,3.00
2017-12-02T02:09:28.744Z,3.00
2017-12-02T02:12:30.152Z,2.90
2017-12-02T02:15:31.560Z,2.90
2017-12-02T02:18:33.172Z,2.80
2017-12-02T02:21:34.560Z,3.00
2017-12-02T02:24:35.975Z,2.90
2017-12-02T02:27:37.352Z,3.00
2017-12-02T02:30:38.720Z,2.90
2017-12-02T02:33:40.093Z,2.80
2017-12-02T02:36:42.217Z,2.90
2017-12-02T02:39:44.296Z,2.90
2017-12-02T02:42:45.726Z,2.90
2017-12-02T02:45:47.058Z,2.70
2017-12-02T02:48:49.024Z,2.80
2017-12-02T02:51:50.373Z,2.70
2017-12-02T02:54:51.778Z,2.80
2017-12-02T02:57:53.139Z,3.00
2017-12-02T03:00:55.280Z,2.90
2017-12-02T03:03:56.677Z,2.90
2017-12-02T03:06:58.027Z,2.80
2017-12-02T03:10:02.556Z,2.90
2017-12-02T03:13:03.968Z,3.00
2017-12-02T03:16:05.431Z,3.00
2017-12-02T03:19:07.516Z,3.10
2017-12-02T03:22:09.673Z,3.00
2017-12-02T03:25:13.152Z,3.00
2017-12-02T03:28:15.588Z,2.90
2017-12-02T03:31:17.005Z,3.00
2017-12-02T03:34:19.149Z,3.00
2017-12-02T03:37:20.536Z,2.90
2017-12-02T03:40:21.939Z,2.90
2017-12-02T03:43:23.387Z,2.90
2017-12-02T03:46:25.492Z,3.00
2017-12-02T03:49:26.917Z,2.90
2017-12-02T03:52:28.356Z,3.00
2017-12-02T03:55:29.797Z,2.80
2017-12-02T03:58:31.220Z,3.00
2017-12-02T04:01:32.642Z,2.70
2017-12-02T04:04:34.044Z,3.00
2017-12-02T04:07:35.445Z,3.00
2017-12-02T04:10:36.908Z,3.00
2017-12-02T04:13:39.031Z,3.00
2017-12-02T04:16:40.509Z,3.00
2017-12-02T04:19:41.965Z,3.00
2017-12-02T04:22:43.338Z,2.90
2017-12-02T04:25:45.488Z,2.90
2017-12-02T04:28:46.963Z,2.80
2017-12-02T04:31:49.172Z,2.90
2017-12-02T04:34:50.558Z,2.80
2017-12-02T04:37:51.949Z,2.80
2017-12-02T04:40:53.448Z,2.70
2017-12-02T04:43:54.856Z,2.90
2017-12-02T04:46:56.263Z,2.50
2017-12-02T04:49:58.150Z,2.80
2017-12-02T04:52:59.997Z,2.70
2017-12-02T04:56:02.538Z,2.70
2017-12-02T04:59:03.977Z,2.70
2017-12-02T05:02:05.516Z,2.60
2017-12-02T05:05:06.980Z,2.50
2017-12-02T05:08:08.368Z,2.50
2017-12-02T05:11:09.772Z,2.80
2017-12-02T05:14:11.152Z,2.70
2017-12-02T05:17:12.672Z,2.30
2017-12-02T05:20:14.095Z,2.70
2017-12-02T05:23:15.501Z,2.60
2017-12-02T05:26:16.957Z,2.40
2017-12-02T05:29:18.408Z,2.80
2017-12-02T05:32:19.812Z,2.40
2017-12-02T05:35:21.937Z,2.70
2017-12-02T05:38:23.321Z,2.50
2017-12-02T05:41:24.720Z,2.50
2017-12-02T05:44:26.148Z,2.60
2017-12-02T05:47:28.291Z,2.70
2017-12-02T05:50:29.691Z,2.50
2017-12-02T05:53:31.104Z,2.60
2017-12-02T05:56:32.470Z,2.80
2017-12-02T05:59:34.646Z,2.80
2017-12-02T06:02:36.024Z,2.60
2017-12-02T06:05:37.549Z,2.80
2017-12-02T06:08:39.007Z,2.80
2017-12-02T06:11:40.397Z,2.80
2017-12-02T06:14:41.813Z,2.80
2017-12-02T06:17:43.366Z,2.60
2017-12-02T06:20:44.931Z,2.60
2017-12-02T06:23:46.335Z,2.60
2017-12-02T06:26:47.744Z,2.80
2017-12-02T06:29:49.155Z,2.80
2017-12-02T06:32:51.283Z,2.70
2017-12-02T06:35:52.768Z,2.40
2017-12-02T06:38:54.158Z,2.60
2017-12-02T06:41:55.560Z,2.60
2017-12-02T06:44:56.940Z,2.60
2017-12-02T06:47:59.053Z,2.60
2017-12-02T06:51:00.452Z,2.60
2017-12-02T06:54:02.644Z,2.70
2017-12-02T06:57:04.052Z,2.60
2017-12-02T07:00:05.484Z,2.60
2017-12-02T07:03:06.915Z,2.40
2017-12-02T07:06:08.341Z,2.30
2017-12-02T07:09:10.492Z,2.70
2017-12-02T07:12:12.652Z,2.70
2017-12-02T07:15:14.052Z,2.50
2017-12-02T07:18:15.485Z,2.60
2017-12-02T07:21:16.899Z,2.70
2017-12-02T07:24:18.380Z,2.80
2017-12-02T07:27:20.504Z,2.70
2017-12-02T07:30:21.932Z,2.70
2017-12-02T07:33:23.348Z,2.70
2017-12-02T07:36:25.505Z,2.70
2017-12-02T07:39:27.281Z,2.70
2017-12-02T07:42:28.677Z,3.00
2017-12-02T07:45:30.092Z,2.80
2017-12-02T07:48:32.347Z,2.70
2017-12-02T07:51:34.501Z,2.70
2017-12-02T07:54:36.093Z,2.70
2017-12-02T07:57:37.504Z,2.70
2017-12-02T08:00:38.932Z,2.70
2017-12-02T08:03:40.339Z,2.70
2017-12-02T08:06:41.751Z,2.70
2017-12-02T08:09:43.144Z,2.60
2017-12-02T08:12:44.585Z,2.70
2017-12-02T08:15:46.843Z,2.80
2017-12-02T08:18:48.269Z,2.50
2017-12-02T08:21:49.682Z,2.80
2017-12-02T08:24:51.068Z,2.70
2017-12-02T08:27:52.484Z,2.70
2017-12-02T08:30:54.304Z,2.70
2017-12-02T08:33:55.755Z,2.70
2017-12-02T08:36:57.192Z,2.70
2017-12-02T08:39:58.611Z,2.60
2017-12-02T08:42:59.996Z,2.50
2017-12-02T08:46:01.424Z,2.60
2017-12-02T08:49:02.792Z,2.90
2017-12-02T08:52:04.265Z,2.90
2017-12-02T08:55:05.660Z,2.80
2017-12-02T08:58:07.154Z,2.70
2017-12-02T09:01:08.559Z,2.70
2017-12-02T09:04:10.137Z,2.70
2017-12-02T09:07:11.564Z,2.70
2017-12-02T09:10:12.980Z,2.70
2017-12-02T09:13:14.412Z,2.70
2017-12-02T09:16:15.826Z,2.90
2017-12-02T09:19:17.213Z,2.70
2017-12-02T09:22:18.617Z,2.70
2017-12-02T10:06:07.691Z,3.20
2017-12-02T10:09:09.288Z,3.40
2017-12-02T10:12:11.466Z,3.20
2017-12-02T10:15:12.900Z,3.10
2017-12-02T10:18:15.026Z,2.90
2017-12-02T10:21:16.435Z,2.90
2017-12-02T10:24:18.603Z,2.90
2017-12-02T10:27:20.796Z,2.90
2017-12-02T10:30:22.384Z,2.90
2017-12-02T10:33:24.103Z,2.90
2017-12-02T10:36:25.497Z,3.00
2017-12-02T10:39:26.899Z,3.00
2017-12-02T10:42:29.017Z,3.00
2017-12-02T10:45:30.447Z,2.90
2017-12-02T10:48:31.928Z,2.90
2017-12-02T10:51:33.448Z,2.90
2017-12-02T10:54:34.899Z,2.90
2017-12-02T10:57:36.323Z,3.00
2017-12-02T11:00:38.479Z,3.00
2017-12-02T11:03:39.913Z,3.10
2017-12-02T11:06:41.282Z,3.10
2017-12-02T11:09:42.672Z,2.90
2017-12-02T11:12:44.100Z,2.80
2017-12-02T11:15:46.294Z,2.90
2017-12-02T11:18:47.747Z,3.00
2017-12-02T11:21:49.139Z,2.90
2017-12-02T11:24:50.555Z,2.90
2017-12-02T11:27:51.952Z,2.90
2017-12-02T11:30:53.388Z,3.00
2017-12-02T11:33:54.789Z,3.10
2017-12-02T11:36:56.919Z,3.10
2017-12-02T11:39:58.403Z,3.10
2017-12-02T11:43:00.540Z,3.00
2017-12-02T11:46:01.995Z,2.90
2017-12-02T11:49:03.374Z,2.90
2017-12-02T11:52:05.547Z,2.70
2017-12-02T11:55:07.656Z,2.70
2017-12-02T11:58:09.072Z,2.40
2017-12-02T12:01:11.230Z,2.80
2017-12-02T12:04:13.364Z,2.90
2017-12-02T12:07:14.712Z,2.80
2017-12-02T12:10:16.064Z,3.00
2017-12-02T12:13:17.482Z,3.00
2017-12-02T12:16:18.818Z,2.90
2017-12-02T12:19:20.189Z,3.10
2017-12-02T12:22:21.528Z,2.60
2017-12-02T12:25:22.948Z,2.70
2017-12-02T12:28:25.044Z,2.80
2017-12-02T12:31:26.412Z,2.80
2017-12-02T12:34:27.845Z,2.80
2017-12-02T12:37:29.202Z,2.80
2017-12-02T12:40:30.558Z,2.90
2017-12-02T12:43:31.900Z,2.90
2017-12-02T12:46:33.291Z,3.60
2017-12-02T12:49:34.684Z,4.30
2017-12-02T12:52:36.871Z,3.30
2017-12-02T12:55:38.238Z,3.20
2017-12-02T12:58:39.656Z,3.10
2017-12-02T13:01:41.831Z,2.90
2017-12-02T13:04:43.193Z,2.70
2017-12-02T13:07:44.608Z,2.60
2017-12-02T13:10:45.986Z,2.60
2017-12-02T13:13:47.394Z,2.80
2017-12-02T13:16:49.462Z,2.70
2017-12-02T13:19:50.839Z,2.70
2017-12-02T13:22:52.918Z,2.80
2017-12-02T13:25:55.073Z,2.80
2017-12-02T13:28:56.434Z,2.50
2017-12-02T13:31:58.555Z,2.70
2017-12-02T13:34:59.923Z,2.90
2017-12-02T13:38:01.297Z,2.90
2017-12-02T13:41:03.460Z,2.60
2017-12-02T13:44:04.816Z,2.50
2017-12-02T13:47:07.009Z,2.80
2017-12-02T13:50:08.440Z,2.70
2017-12-02T13:53:10.568Z,2.70
2017-12-02T13:56:11.921Z,2.70
2017-12-02T13:59:13.320Z,2.70
2017-12-02T14:02:15.445Z,2.80
2017-12-02T14:05:16.848Z,2.80
2017-12-02T14:08:18.192Z,2.80
2017-12-02T14:11:20.276Z,2.80
2017-12-02T14:14:21.673Z,2.70
2017-12-02T14:17:23.056Z,2.80
2017-12-02T14:20:25.167Z,2.80
2017-12-02T14:23:26.544Z,2.80
2017-12-02T14:26:27.960Z,2.70
2017-12-02T14:29:29.314Z,2.80
2017-12-02T14:32:30.691Z,2.60
2017-12-02T14:35:32.039Z,2.60
2017-12-02T14:38:33.413Z,2.50
2017-12-02T14:41:34.749Z,2.50
2017-12-02T14:44:36.126Z,2.40
2017-12-02T14:47:38.264Z,2.70
2017-12-02T14:50:39.667Z,2.70
2017-12-02T14:53:41.088Z,2.70
2017-12-02T14:56:43.202Z,2.60
2017-12-02T14:59:44.600Z,2.50
2017-12-02T15:02:45.953Z,2.80
2017-12-02T15:05:47.360Z,2.60
2017-12-02T15:08:49.632Z,2.80
2017-12-02T15:11:51.094Z,2.40
2017-12-02T15:14:52.576Z,3.20
2017-12-02T15:17:53.904Z,2.80
2017-12-02T15:20:55.300Z,2.90
2017-12-02T15:23:57.427Z,2.90
2017-12-02T15:26:58.855Z,2.80
2017-12-02T15:30:00.205Z,2.90
2017-12-02T15:33:01.552Z,2.90
2017-12-02T15:36:02.956Z,2.90
2017-12-02T15:39:04.407Z,3.00
2017-12-02T15:42:05.768Z,2.90
2017-12-02T15:45:07.925Z,2.80
2017-12-02T15:48:09.375Z,2.80
2017-12-02T15:51:10.772Z,2.80
2017-12-02T15:54:12.229Z,2.60
2017-12-02T15:57:13.643Z,2.70
2017-12-02T16:00:15.860Z,2.60
2017-12-02T16:03:17.287Z,2.70
2017-12-02T16:06:18.776Z,2.70
2017-12-02T16:09:20.136Z,2.50
2017-12-02T16:12:21.547Z,2.60
2017-12-02T16:15:22.948Z,2.60
2017-12-02T16:18:24.349Z,2.70
2017-12-02T16:21:25.760Z,2.70
2017-12-02T16:24:27.148Z,2.60
2017-12-02T16:27:28.832Z,2.60
2017-12-02T16:30:30.250Z,2.60
2017-12-02T16:33:32.365Z,2.60
2017-12-02T16:36:33.709Z,2.50
2017-12-02T16:39:35.144Z,2.60
2017-12-02T16:42:36.537Z,2.40
2017-12-02T16:45:37.990Z,2.60
2017-12-02T16:48:39.407Z,2.70
2017-12-02T16:51:40.790Z,2.60
2017-12-02T16:54:42.191Z,2.60
2017-12-02T16:57:43.601Z,2.60
2017-12-02T17:00:45.012Z,2.60
2017-12-02T17:03:46.407Z,2.60
2017-12-02T17:06:47.807Z,2.30
2017-12-02T17:09:49.213Z,2.70
2017-12-02T17:12:50.670Z,2.50
2017-12-02T17:15:52.788Z,2.70
2017-12-02T17:18:54.216Z,2.60
2017-12-02T17:21:55.635Z,2.80
2017-12-02T17:24:57.072Z,2.80
2017-12-02T17:27:58.452Z,2.70
2017-12-02T17:31:00.638Z,2.70
2017-12-02T17:34:02.048Z,2.70
2017-12-02T17:37:03.493Z,2.70
2017-12-02T17:40:04.921Z,2.60
2017-12-02T17:43:06.356Z,2.60
2017-12-02T17:46:07.824Z,2.50
2017-12-02T17:49:09.231Z,2.00
2017-12-02T17:52:11.345Z,2.40
2017-12-02T17:55:12.748Z,2.30
2017-12-02T17:58:14.908Z,2.40
2017-12-02T18:01:16.273Z,2.30
2017-12-02T18:04:18.446Z,2.40
2017-12-02T18:07:20.556Z,2.30
2017-12-02T18:10:21.913Z,2.30
2017-12-02T18:13:24.116Z,2.20
2017-12-02T18:16:25.489Z,2.20
2017-12-02T18:19:27.807Z,2.20
2017-12-02T18:22:29.140Z,2.20
2017-12-02T18:25:30.493Z,2.20
2017-12-02T18:28:32.184Z,2.20
2017-12-02T18:31:40.448Z,2.20
2017-12-02T18:34:41.873Z,2.10
2017-12-02T18:37:43.975Z,2.20
2017-12-02T18:40:45.380Z,2.00
2017-12-02T18:43:46.732Z,2.20
2017-12-02T18:46:48.118Z,2.20
2017-12-02T18:49:49.503Z,2.20
2017-12-02T18:52:50.903Z,2.40
2017-12-02T18:55:53.055Z,2.20
2017-12-02T18:58:54.385Z,2.10
2017-12-02T19:01:55.778Z,2.20
2017-12-02T19:04:57.875Z,2.20
2017-12-02T19:07:59.252Z,2.10
2017-12-02T19:11:00.584Z,2.30
2017-12-02T19:14:02.012Z,2.00
2017-12-02T19:17:03.399Z,2.40
2017-12-02T19:20:04.813Z,2.30
2017-12-02T19:23:06.231Z,2.20
2017-12-02T19:26:07.620Z,2.00
2017-12-02T19:29:09.063Z,2.00
2017-12-02T19:32:10.491Z,2.20
2017-12-02T19:35:12.669Z,2.20
2017-12-02T19:38:14.822Z,2.20
2017-12-02T19:41:16.204Z,2.20
2017-12-02T19:44:17.557Z,2.10
2017-12-02T19:47:18.997Z,2.00
2017-12-02T19:50:21.264Z,2.10
2017-12-02T19:53:23.382Z,2.20
2017-12-02T19:56:24.839Z,2.20
2017-12-02T19:59:26.354Z,2.10
2017-12-02T20:02:28.530Z,2.20
2017-12-02T20:05:29.952Z,2.20
2017-12-02T20:08:31.429Z,2.20
2017-12-02T20:11:33.603Z,2.20
2017-12-02T20:14:35.096Z,2.20
2017-12-02T20:17:36.596Z,2.20
2017-12-02T20:20:38.720Z,2.10
2017-12-02T20:23:40.222Z,2.00
2017-12-02T20:26:41.634Z,2.20
2017-12-02T20:29:43.032Z,2.30
2017-12-02T20:32:45.177Z,2.20
2017-12-02T20:35:46.573Z,2.20
2017-12-02T20:38:47.934Z,2.20
2017-12-02T20:41:49.368Z,2.30
2017-12-02T20:44:50.783Z,2.20
2017-12-02T20:47:52.144Z,2.20
2017-12-02T20:50:53.560Z,2.10
2017-12-02T20:53:54.955Z,2.20
2017-12-02T20:56:56.349Z,2.20
2017-12-02T20:59:57.773Z,2.40
2017-12-02T21:02:59.179Z,2.70
2017-12-02T21:06:00.724Z,2.60
2017-12-02T21:09:02.172Z,2.50
2017-12-02T21:12:03.730Z,2.30
2017-12-02T21:15:05.201Z,2.20
2017-12-02T21:18:07.386Z,2.10
2017-12-02T21:21:08.803Z,2.00
2017-12-02T21:24:10.312Z,2.20
2017-12-02T21:27:11.740Z,2.10
2017-12-02T21:30:13.222Z,1.90
2017-12-02T21:33:14.766Z,2.10
2017-12-02T21:36:16.256Z,2.10
2017-12-02T21:39:17.807Z,2.20
2017-12-02T21:42:20.067Z,2.30
2017-12-02T21:45:21.521Z,2.20
2017-12-02T21:48:22.995Z,2.20
2017-12-02T21:51:27.268Z,2.00
2017-12-02T21:54:28.888Z,1.80
2017-12-02T21:57:30.734Z,2.00
2017-12-02T22:00:32.925Z,2.00
2017-12-02T22:03:37.310Z,2.00
2017-12-02T22:06:39.584Z,2.00
2017-12-02T22:09:41.096Z,2.00
2017-12-02T22:12:42.652Z,1.90
2017-12-02T22:15:44.306Z,2.00
2017-12-02T22:18:47.672Z,1.90
2017-12-02T22:21:49.144Z,1.70
2017-12-02T22:24:51.488Z,2.00
2017-12-02T22:27:54.876Z,2.00
2017-12-02T22:30:57.464Z,2.10
2017-12-02T22:33:58.952Z,2.10
2017-12-02T22:37:02.256Z,2.10
2017-12-02T22:40:04.476Z,1.90
2017-12-02T22:43:06.049Z,2.00
2017-12-02T22:46:09.674Z,2.10
2017-12-02T22:49:11.999Z,2.00
2017-12-02T22:52:14.637Z,1.80
2017-12-02T22:55:19.019Z,2.10
2017-12-02T22:58:22.695Z,1.90
2017-12-02T23:01:25.096Z,2.20
2017-12-02T23:04:32.182Z,2.10
2017-12-02T23:07:35.753Z,2.10
2017-12-02T23:10:37.303Z,2.20
2017-12-02T23:13:38.875Z,2.00
2017-12-02T23:16:40.434Z,2.20
2017-12-02T23:19:41.891Z,2.00
2017-12-02T23:22:43.321Z,2.10
2017-12-02T23:25:44.910Z,2.10
2017-12-02T23:28:46.344Z,1.90
2017-12-02T23:31:47.770Z,1.90
2017-12-02T23:34:50.058Z,2.00
2017-12-02T23:37:51.539Z,2.00
2017-12-02T23:40:52.975Z,2.00
2017-12-02T23:43:54.324Z,2.00
2017-12-02T23:46:55.795Z,1.80
2017-12-02T23:49:57.159Z,1.90
2017-12-02T23:52:58.565Z,1.60
2017-12-02T23:55:59.961Z,1.70
2017-12-02T23:59:01.351Z,1.80
